sensor_id;sensor_type;location;lat;lon;timestamp;temperature;humidity
70676;DHT22;59069;52.242;20.900;2023-03-16T00:01:19;0.89;75.52
70676;DHT22;59069;52.242;20.900;2023-03-16T00:03:46;0.86;75.47
70676;DHT22;59069;52.242;20.900;2023-03-16T00:06:11;0.83;75.55
70676;DHT22;59069;52.242;20.900;2023-03-16T00:08:37;0.79;75.69
70676;DHT22;59069;52.242;20.900;2023-03-16T00:11:03;0.77;75.80
70676;DHT22;59069;52.242;20.900;2023-03-16T00:13:29;0.70;75.79
70676;DHT22;59069;52.242;20.900;2023-03-16T00:16:00;0.72;75.86
70676;DHT22;59069;52.242;20.900;2023-03-16T00:18:29;0.69;75.94
70676;DHT22;59069;52.242;20.900;2023-03-16T00:21:00;0.63;76.02
70676;DHT22;59069;52.242;20.900;2023-03-16T00:23:29;0.62;76.13
70676;DHT22;59069;52.242;20.900;2023-03-16T00:26:02;0.59;76.23
70676;DHT22;59069;52.242;20.900;2023-03-16T00:28:29;0.60;76.24
70676;DHT22;59069;52.242;20.900;2023-03-16T00:31:09;0.58;76.35
70676;DHT22;59069;52.242;20.900;2023-03-16T00:33:37;0.55;76.35
70676;DHT22;59069;52.242;20.900;2023-03-16T00:36:04;0.52;76.49
70676;DHT22;59069;52.242;20.900;2023-03-16T00:38:37;0.52;76.49
70676;DHT22;59069;52.242;20.900;2023-03-16T00:41:05;0.49;76.55
70676;DHT22;59069;52.242;20.900;2023-03-16T00:43:32;0.49;76.45
70676;DHT22;59069;52.242;20.900;2023-03-16T00:46:08;0.46;76.45
70676;DHT22;59069;52.242;20.900;2023-03-16T00:48:37;0.46;76.53
70676;DHT22;59069;52.242;20.900;2023-03-16T00:51:04;0.45;76.53
70676;DHT22;59069;52.242;20.900;2023-03-16T00:53:35;0.44;76.57
70676;DHT22;59069;52.242;20.900;2023-03-16T00:56:02;0.39;76.61
70676;DHT22;59069;52.242;20.900;2023-03-16T00:58:32;0.36;76.67
70676;DHT22;59069;52.242;20.900;2023-03-16T01:01:05;0.33;76.72
70676;DHT22;59069;52.242;20.900;2023-03-16T01:03:31;0.30;76.75
70676;DHT22;59069;52.242;20.900;2023-03-16T01:06:01;0.32;76.77
70676;DHT22;59069;52.242;20.900;2023-03-16T01:08:27;0.26;76.96
70676;DHT22;59069;52.242;20.900;2023-03-16T01:10:53;0.21;77.02
70676;DHT22;59069;52.242;20.900;2023-03-16T01:13:20;0.25;77.11
70676;DHT22;59069;52.242;20.900;2023-03-16T01:15:46;0.21;77.21
70676;DHT22;59069;52.242;20.900;2023-03-16T01:18:11;0.22;77.24
70676;DHT22;59069;52.242;20.900;2023-03-16T01:20:38;0.21;77.31
70676;DHT22;59069;52.242;20.900;2023-03-16T01:23:04;0.21;77.60
70676;DHT22;59069;52.242;20.900;2023-03-16T01:25:30;0.18;77.74
70676;DHT22;59069;52.242;20.900;2023-03-16T01:27:56;0.17;77.84
70676;DHT22;59069;52.242;20.900;2023-03-16T01:30:22;0.15;78.05
70676;DHT22;59069;52.242;20.900;2023-03-16T01:32:48;0.14;78.13
70676;DHT22;59069;52.242;20.900;2023-03-16T01:35:13;0.12;78.21
70676;DHT22;59069;52.242;20.900;2023-03-16T01:37:39;0.08;78.34
70676;DHT22;59069;52.242;20.900;2023-03-16T01:40:06;0.08;78.46
70676;DHT22;59069;52.242;20.900;2023-03-16T01:42:43;0.05;78.52
70676;DHT22;59069;52.242;20.900;2023-03-16T01:48:13;0.05;78.56
70676;DHT22;59069;52.242;20.900;2023-03-16T01:50:40;0.05;78.66
70676;DHT22;59069;52.242;20.900;2023-03-16T01:53:07;0.01;78.73
70676;DHT22;59069;52.242;20.900;2023-03-16T01:55:33;0.01;78.83
70676;DHT22;59069;52.242;20.900;2023-03-16T01:57:58;-0.02;78.79
70676;DHT22;59069;52.242;20.900;2023-03-16T02:00:24;0.02;78.88
70676;DHT22;59069;52.242;20.900;2023-03-16T02:02:59;-0.01;79.14
70676;DHT22;59069;52.242;20.900;2023-03-16T02:05:42;0.01;79.23
70676;DHT22;59069;52.242;20.900;2023-03-16T02:08:09;0.01;79.23
70676;DHT22;59069;52.242;20.900;2023-03-16T02:10:37;-0.01;79.33
70676;DHT22;59069;52.242;20.900;2023-03-16T02:13:03;-0.02;79.41
70676;DHT22;59069;52.242;20.900;2023-03-16T02:15:29;-0.02;79.52
70676;DHT22;59069;52.242;20.900;2023-03-16T02:17:55;-0.03;79.65
70676;DHT22;59069;52.242;20.900;2023-03-16T02:23:13;-0.05;79.79
70676;DHT22;59069;52.242;20.900;2023-03-16T02:28:25;-0.09;79.82
70676;DHT22;59069;52.242;20.900;2023-03-16T02:30:54;-0.12;80.13
70676;DHT22;59069;52.242;20.900;2023-03-16T02:33:20;-0.15;80.10
70676;DHT22;59069;52.242;20.900;2023-03-16T02:35:45;-0.13;80.34
70676;DHT22;59069;52.242;20.900;2023-03-16T02:38:11;-0.17;80.53
70676;DHT22;59069;52.242;20.900;2023-03-16T02:40:37;-0.16;80.62
70676;DHT22;59069;52.242;20.900;2023-03-16T02:43:06;-0.19;80.65
70676;DHT22;59069;52.242;20.900;2023-03-16T02:45:59;-0.20;80.72
70676;DHT22;59069;52.242;20.900;2023-03-16T02:48:46;-0.22;80.73
70676;DHT22;59069;52.242;20.900;2023-03-16T02:51:13;-0.22;80.79
70676;DHT22;59069;52.242;20.900;2023-03-16T02:53:39;-0.24;80.91
70676;DHT22;59069;52.242;20.900;2023-03-16T02:56:05;-0.24;81.00
70676;DHT22;59069;52.242;20.900;2023-03-16T02:58:31;-0.26;81.06
70676;DHT22;59069;52.242;20.900;2023-03-16T03:00:57;-0.27;81.16
70676;DHT22;59069;52.242;20.900;2023-03-16T03:03:22;-0.29;81.31
70676;DHT22;59069;52.242;20.900;2023-03-16T03:05:48;-0.30;81.43
70676;DHT22;59069;52.242;20.900;2023-03-16T03:08:14;-0.30;81.47
70676;DHT22;59069;52.242;20.900;2023-03-16T03:10:40;-0.32;81.45
70676;DHT22;59069;52.242;20.900;2023-03-16T03:13:06;-0.32;81.47
70676;DHT22;59069;52.242;20.900;2023-03-16T03:15:32;-0.32;81.55
70676;DHT22;59069;52.242;20.900;2023-03-16T03:17:58;-0.36;81.79
70676;DHT22;59069;52.242;20.900;2023-03-16T03:20:24;-0.37;81.96
70676;DHT22;59069;52.242;20.900;2023-03-16T03:22:50;-0.37;82.10
70676;DHT22;59069;52.242;20.900;2023-03-16T03:25:17;-0.34;82.15
70676;DHT22;59069;52.242;20.900;2023-03-16T03:27:43;-0.38;82.16
70676;DHT22;59069;52.242;20.900;2023-03-16T03:30:10;-0.37;82.32
70676;DHT22;59069;52.242;20.900;2023-03-16T03:32:37;-0.40;82.32
70676;DHT22;59069;52.242;20.900;2023-03-16T03:35:03;-0.44;82.38
70676;DHT22;59069;52.242;20.900;2023-03-16T03:37:29;-0.47;82.52
70676;DHT22;59069;52.242;20.900;2023-03-16T03:39:55;-0.47;82.59
70676;DHT22;59069;52.242;20.900;2023-03-16T03:42:20;-0.49;82.80
70676;DHT22;59069;52.242;20.900;2023-03-16T03:44:49;-0.46;82.83
70676;DHT22;59069;52.242;20.900;2023-03-16T03:47:15;-0.49;82.84
70676;DHT22;59069;52.242;20.900;2023-03-16T03:49:41;-0.49;82.97
70676;DHT22;59069;52.242;20.900;2023-03-16T03:52:06;-0.50;83.07
70676;DHT22;59069;52.242;20.900;2023-03-16T03:54:32;-0.56;83.21
70676;DHT22;59069;52.242;20.900;2023-03-16T03:56:58;-0.50;83.25
70676;DHT22;59069;52.242;20.900;2023-03-16T03:59:23;-0.53;83.41
70676;DHT22;59069;52.242;20.900;2023-03-16T04:01:49;-0.53;83.42
70676;DHT22;59069;52.242;20.900;2023-03-16T04:04:18;-0.52;83.48
70676;DHT22;59069;52.242;20.900;2023-03-16T04:06:44;-0.52;83.48
70676;DHT22;59069;52.242;20.900;2023-03-16T04:09:09;-0.53;83.53
70676;DHT22;59069;52.242;20.900;2023-03-16T04:11:36;-0.53;83.61
70676;DHT22;59069;52.242;20.900;2023-03-16T04:14:01;-0.54;83.66
70676;DHT22;59069;52.242;20.900;2023-03-16T04:16:28;-0.53;83.67
70676;DHT22;59069;52.242;20.900;2023-03-16T04:18:54;-0.56;83.73
70676;DHT22;59069;52.242;20.900;2023-03-16T04:21:21;-0.57;83.76
70676;DHT22;59069;52.242;20.900;2023-03-16T04:23:47;-0.54;83.80
70676;DHT22;59069;52.242;20.900;2023-03-16T04:26:13;-0.56;83.79
70676;DHT22;59069;52.242;20.900;2023-03-16T04:28:39;-0.57;83.88
70676;DHT22;59069;52.242;20.900;2023-03-16T04:31:06;-0.56;83.87
70676;DHT22;59069;52.242;20.900;2023-03-16T04:33:33;-0.56;83.88
70676;DHT22;59069;52.242;20.900;2023-03-16T04:36:00;-0.57;83.89
70676;DHT22;59069;52.242;20.900;2023-03-16T04:38:27;-0.56;83.92
70676;DHT22;59069;52.242;20.900;2023-03-16T04:40:54;-0.58;83.94
70676;DHT22;59069;52.242;20.900;2023-03-16T04:43:19;-0.58;84.03
70676;DHT22;59069;52.242;20.900;2023-03-16T04:45:45;-0.57;84.07
70676;DHT22;59069;52.242;20.900;2023-03-16T04:48:11;-0.60;84.12
70676;DHT22;59069;52.242;20.900;2023-03-16T04:50:36;-0.58;84.16
70676;DHT22;59069;52.242;20.900;2023-03-16T04:53:02;-0.60;84.16
70676;DHT22;59069;52.242;20.900;2023-03-16T04:55:29;-0.56;84.13
70676;DHT22;59069;52.242;20.900;2023-03-16T04:57:55;-0.57;84.21
70676;DHT22;59069;52.242;20.900;2023-03-16T05:00:21;-0.57;84.35
70676;DHT22;59069;52.242;20.900;2023-03-16T05:02:49;-0.54;84.32
70676;DHT22;59069;52.242;20.900;2023-03-16T05:05:16;-0.53;84.30
70676;DHT22;59069;52.242;20.900;2023-03-16T05:07:43;-0.52;84.26
70676;DHT22;59069;52.242;20.900;2023-03-16T05:10:11;-0.52;84.32
70676;DHT22;59069;52.242;20.900;2023-03-16T05:12:37;-0.52;84.35
70676;DHT22;59069;52.242;20.900;2023-03-16T05:15:03;-0.52;84.41
70676;DHT22;59069;52.242;20.900;2023-03-16T05:17:29;-0.50;84.59
70676;DHT22;59069;52.242;20.900;2023-03-16T05:19:55;-0.47;84.69
70676;DHT22;59069;52.242;20.900;2023-03-16T05:22:20;-0.41;84.73
70676;DHT22;59069;52.242;20.900;2023-03-16T05:24:46;-0.38;84.85
70676;DHT22;59069;52.242;20.900;2023-03-16T05:27:11;-0.32;84.82
70676;DHT22;59069;52.242;20.900;2023-03-16T05:29:37;-0.26;84.97
70676;DHT22;59069;52.242;20.900;2023-03-16T05:32:02;-0.20;85.06
70676;DHT22;59069;52.242;20.900;2023-03-16T05:34:28;-0.10;85.13
70676;DHT22;59069;52.242;20.900;2023-03-16T05:36:54;-0.01;85.10
70676;DHT22;59069;52.242;20.900;2023-03-16T05:39:19;0.15;85.02
70676;DHT22;59069;52.242;20.900;2023-03-16T05:41:45;0.22;84.89
70676;DHT22;59069;52.242;20.900;2023-03-16T05:44:10;0.30;84.56
70676;DHT22;59069;52.242;20.900;2023-03-16T05:46:36;0.42;84.36
70676;DHT22;59069;52.242;20.900;2023-03-16T05:49:02;0.53;84.17
70676;DHT22;59069;52.242;20.900;2023-03-16T05:51:28;0.63;83.98
70676;DHT22;59069;52.242;20.900;2023-03-16T05:53:54;0.77;83.63
70676;DHT22;59069;52.242;20.900;2023-03-16T05:56:26;0.89;83.39
70676;DHT22;59069;52.242;20.900;2023-03-16T05:58:53;1.00;82.92
70676;DHT22;59069;52.242;20.900;2023-03-16T06:01:20;1.08;82.55
70676;DHT22;59069;52.242;20.900;2023-03-16T06:03:47;1.13;82.39
70676;DHT22;59069;52.242;20.900;2023-03-16T06:06:14;1.23;82.12
70676;DHT22;59069;52.242;20.900;2023-03-16T06:08:40;1.34;81.97
70676;DHT22;59069;52.242;20.900;2023-03-16T06:11:06;1.42;81.92
70676;DHT22;59069;52.242;20.900;2023-03-16T06:13:32;1.52;81.93
70676;DHT22;59069;52.242;20.900;2023-03-16T06:15:58;1.59;81.91
70676;DHT22;59069;52.242;20.900;2023-03-16T06:18:23;1.73;81.35
70676;DHT22;59069;52.242;20.900;2023-03-16T06:20:49;1.85;81.28
70676;DHT22;59069;52.242;20.900;2023-03-16T06:23:14;1.96;80.69
70676;DHT22;59069;52.242;20.900;2023-03-16T06:25:40;2.05;80.93
70676;DHT22;59069;52.242;20.900;2023-03-16T06:28:06;2.17;80.36
70676;DHT22;59069;52.242;20.900;2023-03-16T06:30:32;2.26;79.69
70676;DHT22;59069;52.242;20.900;2023-03-16T06:32:58;2.36;80.45
70676;DHT22;59069;52.242;20.900;2023-03-16T06:35:25;2.53;79.69
70676;DHT22;59069;52.242;20.900;2023-03-16T06:37:51;2.65;78.95
70676;DHT22;59069;52.242;20.900;2023-03-16T06:40:16;2.78;78.18
70676;DHT22;59069;52.242;20.900;2023-03-16T06:42:42;2.94;78.05
70676;DHT22;59069;52.242;20.900;2023-03-16T06:45:08;3.06;77.20
70676;DHT22;59069;52.242;20.900;2023-03-16T06:47:35;3.18;76.67
70676;DHT22;59069;52.242;20.900;2023-03-16T06:50:01;3.25;76.23
70676;DHT22;59069;52.242;20.900;2023-03-16T06:52:26;3.35;75.88
70676;DHT22;59069;52.242;20.900;2023-03-16T06:54:52;3.44;75.84
70676;DHT22;59069;52.242;20.900;2023-03-16T06:57:18;3.56;75.62
70676;DHT22;59069;52.242;20.900;2023-03-16T06:59:43;3.67;75.67
70676;DHT22;59069;52.242;20.900;2023-03-16T07:02:12;3.83;74.86
70676;DHT22;59069;52.242;20.900;2023-03-16T07:04:39;3.95;73.41
70676;DHT22;59069;52.242;20.900;2023-03-16T07:07:06;4.09;73.23
70676;DHT22;59069;52.242;20.900;2023-03-16T07:09:31;4.15;71.92
70676;DHT22;59069;52.242;20.900;2023-03-16T07:11:57;4.24;71.40
70676;DHT22;59069;52.242;20.900;2023-03-16T07:14:22;4.35;71.34
70676;DHT22;59069;52.242;20.900;2023-03-16T07:16:50;4.52;71.10
70676;DHT22;59069;52.242;20.900;2023-03-16T07:19:17;4.70;70.94
70676;DHT22;59069;52.242;20.900;2023-03-16T07:21:43;4.84;69.94
70676;DHT22;59069;52.242;20.900;2023-03-16T07:24:09;5.01;69.22
70676;DHT22;59069;52.242;20.900;2023-03-16T07:26:35;5.11;68.24
70676;DHT22;59069;52.242;20.900;2023-03-16T07:29:01;5.21;67.84
70676;DHT22;59069;52.242;20.900;2023-03-16T07:31:29;5.34;67.68
70676;DHT22;59069;52.242;20.900;2023-03-16T07:33:54;5.42;66.43
70676;DHT22;59069;52.242;20.900;2023-03-16T07:36:21;5.44;65.91
70676;DHT22;59069;52.242;20.900;2023-03-16T07:38:47;5.44;65.66
70676;DHT22;59069;52.242;20.900;2023-03-16T07:41:13;5.42;65.24
70676;DHT22;59069;52.242;20.900;2023-03-16T07:43:38;5.37;65.35
70676;DHT22;59069;52.242;20.900;2023-03-16T07:46:04;5.34;65.31
70676;DHT22;59069;52.242;20.900;2023-03-16T07:48:30;5.38;64.93
70676;DHT22;59069;52.242;20.900;2023-03-16T07:50:57;5.44;64.77
70676;DHT22;59069;52.242;20.900;2023-03-16T07:53:22;5.58;65.58
70676;DHT22;59069;52.242;20.900;2023-03-16T07:55:48;5.68;65.08
70676;DHT22;59069;52.242;20.900;2023-03-16T07:58:13;5.83;64.84
70676;DHT22;59069;52.242;20.900;2023-03-16T08:00:39;5.99;65.11
70676;DHT22;59069;52.242;20.900;2023-03-16T08:03:06;6.19;65.31
70676;DHT22;59069;52.242;20.900;2023-03-16T08:05:32;6.51;65.01
70676;DHT22;59069;52.242;20.900;2023-03-16T08:07:58;6.80;64.02
70676;DHT22;59069;52.242;20.900;2023-03-16T08:10:25;7.06;65.70
70676;DHT22;59069;52.242;20.900;2023-03-16T08:12:51;7.44;71.83
70676;DHT22;59069;52.242;20.900;2023-03-16T08:15:17;7.84;73.97
70676;DHT22;59069;52.242;20.900;2023-03-16T08:17:43;8.35;70.75
70676;DHT22;59069;52.242;20.900;2023-03-16T08:20:11;9.10;68.45
70676;DHT22;59069;52.242;20.900;2023-03-16T08:22:39;10.19;64.39
70676;DHT22;59069;52.242;20.900;2023-03-16T08:25:07;11.43;60.52
70676;DHT22;59069;52.242;20.900;2023-03-16T08:27:35;12.46;52.39
70676;DHT22;59069;52.242;20.900;2023-03-16T08:30:04;13.43;50.95
70676;DHT22;59069;52.242;20.900;2023-03-16T08:32:31;14.22;47.48
70676;DHT22;59069;52.242;20.900;2023-03-16T08:34:56;14.90;42.49
70676;DHT22;59069;52.242;20.900;2023-03-16T08:37:25;15.41;40.28
70676;DHT22;59069;52.242;20.900;2023-03-16T08:39:51;15.66;37.98
70676;DHT22;59069;52.242;20.900;2023-03-16T08:42:17;16.07;38.79
70676;DHT22;59069;52.242;20.900;2023-03-16T08:44:44;16.58;39.15
70676;DHT22;59069;52.242;20.900;2023-03-16T08:47:10;17.05;34.68
70676;DHT22;59069;52.242;20.900;2023-03-16T08:49:36;17.45;36.04
70676;DHT22;59069;52.242;20.900;2023-03-16T08:52:02;17.90;35.99
70676;DHT22;59069;52.242;20.900;2023-03-16T08:54:29;18.27;34.24
70676;DHT22;59069;52.242;20.900;2023-03-16T08:56:56;18.49;30.48
70676;DHT22;59069;52.242;20.900;2023-03-16T08:59:22;18.38;32.42
70676;DHT22;59069;52.242;20.900;2023-03-16T09:01:47;18.45;31.23
70676;DHT22;59069;52.242;20.900;2023-03-16T09:04:13;18.55;32.90
70676;DHT22;59069;52.242;20.900;2023-03-16T09:06:39;18.56;28.90
70676;DHT22;59069;52.242;20.900;2023-03-16T09:09:06;18.37;32.65
70676;DHT22;59069;52.242;20.900;2023-03-16T09:11:33;18.42;30.54
70676;DHT22;59069;52.242;20.900;2023-03-16T09:14:00;18.28;29.89
70676;DHT22;59069;52.242;20.900;2023-03-16T09:16:26;18.01;31.97
70676;DHT22;59069;52.242;20.900;2023-03-16T09:18:52;17.63;28.82
70676;DHT22;59069;52.242;20.900;2023-03-16T09:21:18;17.32;32.26
70676;DHT22;59069;52.242;20.900;2023-03-16T09:23:44;17.45;34.19
70676;DHT22;59069;52.242;20.900;2023-03-16T09:26:11;17.52;32.19
70676;DHT22;59069;52.242;20.900;2023-03-16T09:28:39;17.71;30.07
70676;DHT22;59069;52.242;20.900;2023-03-16T09:31:06;17.94;31.97
70676;DHT22;59069;52.242;20.900;2023-03-16T09:33:34;17.97;30.50
70676;DHT22;59069;52.242;20.900;2023-03-16T09:35:59;18.05;32.27
70676;DHT22;59069;52.242;20.900;2023-03-16T09:38:26;17.43;26.61
70676;DHT22;59069;52.242;20.900;2023-03-16T09:41:01;16.92;29.91
70676;DHT22;59069;52.242;20.900;2023-03-16T09:46:39;14.63;31.80
70676;DHT22;59069;52.242;20.900;2023-03-16T09:49:09;13.47;38.39
70676;DHT22;59069;52.242;20.900;2023-03-16T09:51:43;13.42;45.67
70676;DHT22;59069;52.242;20.900;2023-03-16T09:56:45;15.75;39.96
70676;DHT22;59069;52.242;20.900;2023-03-16T09:59:14;16.87;35.85
70676;DHT22;59069;52.242;20.900;2023-03-16T10:09:56;19.86;27.26
70676;DHT22;59069;52.242;20.900;2023-03-16T10:12:32;19.79;26.21
70676;DHT22;59069;52.242;20.900;2023-03-16T10:15:07;19.74;29.27
70676;DHT22;59069;52.242;20.900;2023-03-16T10:17:39;19.58;25.61
70676;DHT22;59069;52.242;20.900;2023-03-16T10:20:17;18.88;23.93
70676;DHT22;59069;52.242;20.900;2023-03-16T10:22:45;17.63;25.37
70676;DHT22;59069;52.242;20.900;2023-03-16T10:25:30;16.57;29.00
70676;DHT22;59069;52.242;20.900;2023-03-16T10:27:58;15.95;31.66
70676;DHT22;59069;52.242;20.900;2023-03-16T10:30:31;15.54;31.51
70676;DHT22;59069;52.242;20.900;2023-03-16T10:33:17;15.12;32.27
70676;DHT22;59069;52.242;20.900;2023-03-16T10:38:41;14.11;33.98
70676;DHT22;59069;52.242;20.900;2023-03-16T10:41:34;13.98;36.95
70676;DHT22;59069;52.242;20.900;2023-03-16T10:44:23;14.11;39.21
70676;DHT22;59069;52.242;20.900;2023-03-16T10:47:03;14.70;37.33
70676;DHT22;59069;52.242;20.900;2023-03-16T10:49:38;14.93;33.82
70676;DHT22;59069;52.242;20.900;2023-03-16T10:52:45;14.45;29.51
70676;DHT22;59069;52.242;20.900;2023-03-16T10:55:39;13.37;32.24
70676;DHT22;59069;52.242;20.900;2023-03-16T10:58:07;12.54;34.09
70676;DHT22;59069;52.242;20.900;2023-03-16T11:00:36;11.83;36.33
70676;DHT22;59069;52.242;20.900;2023-03-16T11:03:18;11.35;38.34
70676;DHT22;59069;52.242;20.900;2023-03-16T11:05:47;10.92;39.66
70676;DHT22;59069;52.242;20.900;2023-03-16T11:08:24;10.59;41.02
70676;DHT22;59069;52.242;20.900;2023-03-16T11:10:58;10.29;41.61
70676;DHT22;59069;52.242;20.900;2023-03-16T11:13:32;10.08;42.87
70676;DHT22;59069;52.242;20.900;2023-03-16T11:19:20;9.78;42.96
70676;DHT22;59069;52.242;20.900;2023-03-16T11:21:52;9.48;43.32
70676;DHT22;59069;52.242;20.900;2023-03-16T11:30:15;8.49;46.41
70676;DHT22;59069;52.242;20.900;2023-03-16T11:32:49;8.24;46.86
70676;DHT22;59069;52.242;20.900;2023-03-16T11:35:22;7.97;47.24
70676;DHT22;59069;52.242;20.900;2023-03-16T11:38:17;7.70;48.07
70676;DHT22;59069;52.242;20.900;2023-03-16T11:41:04;7.46;49.10
70676;DHT22;59069;52.242;20.900;2023-03-16T11:52:08;7.01;52.31
70676;DHT22;59069;52.242;20.900;2023-03-16T12:11:26;7.78;51.48
70676;DHT22;59069;52.242;20.900;2023-03-16T12:24:52;7.25;53.30
70676;DHT22;59069;52.242;20.900;2023-03-16T12:27:25;7.19;53.42
70676;DHT22;59069;52.242;20.900;2023-03-16T12:36:02;6.95;53.33
70676;DHT22;59069;52.242;20.900;2023-03-16T12:39:05;6.93;53.80
70676;DHT22;59069;52.242;20.900;2023-03-16T12:49:12;6.80;54.27
70676;DHT22;59069;52.242;20.900;2023-03-16T12:51:41;6.77;54.44
70676;DHT22;59069;52.242;20.900;2023-03-16T12:54:27;6.75;54.91
70676;DHT22;59069;52.242;20.900;2023-03-16T12:57:03;6.82;55.36
70676;DHT22;59069;52.242;20.900;2023-03-16T12:59:41;6.95;55.91
70676;DHT22;59069;52.242;20.900;2023-03-16T13:02:18;7.20;56.28
70676;DHT22;59069;52.242;20.900;2023-03-16T13:04:46;7.42;55.45
70676;DHT22;59069;52.242;20.900;2023-03-16T13:07:18;7.57;54.67
70676;DHT22;59069;52.242;20.900;2023-03-16T13:09:50;7.66;53.84
70676;DHT22;59069;52.242;20.900;2023-03-16T13:12:32;7.77;53.19
70676;DHT22;59069;52.242;20.900;2023-03-16T13:15:02;7.90;52.11
70676;DHT22;59069;52.242;20.900;2023-03-16T13:17:41;7.97;50.74
70676;DHT22;59069;52.242;20.900;2023-03-16T13:22:47;8.39;50.88
70676;DHT22;59069;52.242;20.900;2023-03-16T13:27:54;9.07;46.41
70676;DHT22;59069;52.242;20.900;2023-03-16T13:30:23;8.90;44.45
70676;DHT22;59069;52.242;20.900;2023-03-16T13:32:54;8.69;44.80
70676;DHT22;59069;52.242;20.900;2023-03-16T13:35:25;8.44;45.22
70676;DHT22;59069;52.242;20.900;2023-03-16T13:37:52;8.22;45.81
70676;DHT22;59069;52.242;20.900;2023-03-16T13:40:25;7.95;46.16
70676;DHT22;59069;52.242;20.900;2023-03-16T13:42:56;7.77;47.06
70676;DHT22;59069;52.242;20.900;2023-03-16T13:45:32;7.64;47.87
70676;DHT22;59069;52.242;20.900;2023-03-16T13:47:59;7.50;48.68
70676;DHT22;59069;52.242;20.900;2023-03-16T13:50:26;7.42;48.90
70676;DHT22;59069;52.242;20.900;2023-03-16T13:53:03;7.29;49.03
70676;DHT22;59069;52.242;20.900;2023-03-16T13:55:31;7.16;49.33
70676;DHT22;59069;52.242;20.900;2023-03-16T13:57:59;7.11;49.68
70676;DHT22;59069;52.242;20.900;2023-03-16T14:00:34;7.01;49.86
70676;DHT22;59069;52.242;20.900;2023-03-16T14:03:21;6.92;50.01
70676;DHT22;59069;52.242;20.900;2023-03-16T14:05:48;6.92;49.92
70676;DHT22;59069;52.242;20.900;2023-03-16T14:08:21;6.89;49.97
70676;DHT22;59069;52.242;20.900;2023-03-16T14:10:49;6.87;50.18
70676;DHT22;59069;52.242;20.900;2023-03-16T14:15:55;6.84;50.78
70676;DHT22;59069;52.242;20.900;2023-03-16T14:18:23;6.80;50.92
70676;DHT22;59069;52.242;20.900;2023-03-16T14:20:53;6.75;51.08
70676;DHT22;59069;52.242;20.900;2023-03-16T14:23:23;6.70;51.30
70676;DHT22;59069;52.242;20.900;2023-03-16T14:25:50;6.71;51.47
70676;DHT22;59069;52.242;20.900;2023-03-16T14:28:19;6.70;51.56
70676;DHT22;59069;52.242;20.900;2023-03-16T14:30:53;6.70;51.67
70676;DHT22;59069;52.242;20.900;2023-03-16T14:33:27;6.72;51.59
70676;DHT22;59069;52.242;20.900;2023-03-16T14:35:56;6.80;51.63
70676;DHT22;59069;52.242;20.900;2023-03-16T14:38:35;6.89;51.01
70676;DHT22;59069;52.242;20.900;2023-03-16T14:43:36;6.93;50.29
70676;DHT22;59069;52.242;20.900;2023-03-16T14:46:06;6.98;50.70
70676;DHT22;59069;52.242;20.900;2023-03-16T14:48:33;7.22;51.72
70676;DHT22;59069;52.242;20.900;2023-03-16T14:51:00;7.98;54.34
70676;DHT22;59069;52.242;20.900;2023-03-16T14:53:27;8.22;50.55
70676;DHT22;59069;52.242;20.900;2023-03-16T14:55:54;8.36;49.59
70676;DHT22;59069;52.242;20.900;2023-03-16T14:58:21;8.44;48.86
70676;DHT22;59069;52.242;20.900;2023-03-16T15:00:47;8.48;48.83
70676;DHT22;59069;52.242;20.900;2023-03-16T15:03:17;8.55;48.75
70676;DHT22;59069;52.242;20.900;2023-03-16T15:05:48;8.55;47.98
70676;DHT22;59069;52.242;20.900;2023-03-16T15:08:26;8.53;47.78
70676;DHT22;59069;52.242;20.900;2023-03-16T15:10:53;8.42;46.98
70676;DHT22;59069;52.242;20.900;2023-03-16T15:13:21;8.32;46.78
70676;DHT22;59069;52.242;20.900;2023-03-16T15:16:10;8.20;46.44
70676;DHT22;59069;52.242;20.900;2023-03-16T15:18:37;8.09;46.48
70676;DHT22;59069;52.242;20.900;2023-03-16T15:21:10;7.99;46.42
70676;DHT22;59069;52.242;20.900;2023-03-16T15:23:38;7.84;46.49
70676;DHT22;59069;52.242;20.900;2023-03-16T15:26:04;7.77;46.73
70676;DHT22;59069;52.242;20.900;2023-03-16T15:28:32;7.67;46.80
70676;DHT22;59069;52.242;20.900;2023-03-16T15:31:00;7.59;47.05
70676;DHT22;59069;52.242;20.900;2023-03-16T15:33:26;7.53;47.10
70676;DHT22;59069;52.242;20.900;2023-03-16T15:35:55;7.47;47.16
70676;DHT22;59069;52.242;20.900;2023-03-16T15:40:49;7.23;47.53
70676;DHT22;59069;52.242;20.900;2023-03-16T15:43:20;7.15;47.83
70676;DHT22;59069;52.242;20.900;2023-03-16T15:45:47;7.09;48.44
70676;DHT22;59069;52.242;20.900;2023-03-16T15:48:14;7.06;48.98
70676;DHT22;59069;52.242;20.900;2023-03-16T15:50:44;7.06;49.61
70676;DHT22;59069;52.242;20.900;2023-03-16T15:53:24;7.03;49.75
70676;DHT22;59069;52.242;20.900;2023-03-16T15:55:54;7.08;49.89
70676;DHT22;59069;52.242;20.900;2023-03-16T15:58:24;6.95;49.26
70676;DHT22;59069;52.242;20.900;2023-03-16T16:00:53;6.89;49.04
70676;DHT22;59069;52.242;20.900;2023-03-16T16:03:22;6.80;48.82
70676;DHT22;59069;52.242;20.900;2023-03-16T16:05:48;6.85;49.48
70676;DHT22;59069;52.242;20.900;2023-03-16T16:08:14;7.50;50.03
70676;DHT22;59069;52.242;20.900;2023-03-16T16:10:41;7.44;46.93
70676;DHT22;59069;52.242;20.900;2023-03-16T16:13:23;7.16;47.08
70676;DHT22;59069;52.242;20.900;2023-03-16T16:15:50;6.93;47.56
70676;DHT22;59069;52.242;20.900;2023-03-16T16:18:23;6.67;48.98
70676;DHT22;59069;52.242;20.900;2023-03-16T16:20:50;6.45;50.19
70676;DHT22;59069;52.242;20.900;2023-03-16T16:23:16;6.29;51.47
70676;DHT22;59069;52.242;20.900;2023-03-16T16:25:42;6.12;52.62
70676;DHT22;59069;52.242;20.900;2023-03-16T16:28:21;5.92;53.60
70676;DHT22;59069;52.242;20.900;2023-03-16T16:30:47;5.80;54.25
70676;DHT22;59069;52.242;20.900;2023-03-16T16:33:39;5.68;54.95
70676;DHT22;59069;52.242;20.900;2023-03-16T16:36:09;5.58;55.41
70676;DHT22;59069;52.242;20.900;2023-03-16T16:38:36;5.48;55.89
70676;DHT22;59069;52.242;20.900;2023-03-16T16:41:06;5.39;56.30
70676;DHT22;59069;52.242;20.900;2023-03-16T16:43:36;5.35;56.61
70676;DHT22;59069;52.242;20.900;2023-03-16T16:46:12;5.30;57.02
70676;DHT22;59069;52.242;20.900;2023-03-16T16:48:42;5.28;57.11
70676;DHT22;59069;52.242;20.900;2023-03-16T16:51:17;5.18;57.24
70676;DHT22;59069;52.242;20.900;2023-03-16T16:53:44;5.14;57.29
70676;DHT22;59069;52.242;20.900;2023-03-16T16:56:13;5.07;57.44
70676;DHT22;59069;52.242;20.900;2023-03-16T16:58:41;4.98;57.67
70676;DHT22;59069;52.242;20.900;2023-03-16T17:01:19;4.94;57.97
70676;DHT22;59069;52.242;20.900;2023-03-16T17:03:46;4.89;58.07
70676;DHT22;59069;52.242;20.900;2023-03-16T17:06:16;4.81;58.28
70676;DHT22;59069;52.242;20.900;2023-03-16T17:08:45;4.76;58.50
70676;DHT22;59069;52.242;20.900;2023-03-16T17:11:18;4.70;58.87
70676;DHT22;59069;52.242;20.900;2023-03-16T17:13:44;4.65;59.16